Time;durP1;ratioP1;P1;durP2;ratioP2;P2;SDS_P1;SDS_P2;PMS_P1;PMS_P2;Temp;Humidity;BMP_temperature;BMP_pressure;BME280_temperature;BME280_humidity;BME280_pressure;Samples;Min_cycle;Max_cycle;Signal;HPM_P1;HPM_P2
2022/02/14 00:01:48;;;;;;;;;;;;;;;;;;5056086;28;1267;-71
2022/02/14 00:04:15;;;;;;;;;;;;;;;;;;5073794;28;1989;-71
2022/02/14 00:06:41;;;;;;;;;;;;;;;;;;5074033;28;994;-70
2022/02/14 00:09:07;;;;;;;;;;;;;;;;;;5073975;28;757;-70
2022/02/14 00:11:35;;;;;;;;;;;;;;;;;;5074140;28;852;-71
2022/02/14 00:14:01;;;;;;;;;;;;;;;;;;5073593;28;1452;-71
2022/02/14 00:16:27;;;;;;;;;;;;;;;;;;5073780;28;967;-70
2022/02/14 00:18:54;;;;;;;;;;;;;;;;;;5073669;28;911;-70
2022/02/14 00:21:20;;;;;;;;;;;;;;;;;;5073647;28;900;-70
2022/02/14 00:23:46;;;;;;;;;;;;;;;;;;5055755;28;1981;-70
2022/02/14 00:26:12;;;;;;;;;;;;;;;;;;5055593;28;1313;-71
2022/02/14 00:28:40;;;;;;;;;;;;;;;;;;5055986;28;1497;-70
2022/02/14 00:31:06;;;;;;;;;;;;;;;;;;5073316;28;812;-70
2022/02/14 00:33:34;;;;;;;;;;;;;;;;;;5073621;28;856;-70
2022/02/14 00:36:00;;;;;;;;;;;;;;;;;;5073145;28;1338;-71
2022/02/14 00:38:27;;;;;;;;;;;;;;;;;;5073461;28;1045;-71
2022/02/14 00:40:54;;;;;;;;;;;;;;;;;;5073609;28;1010;-71
2022/02/14 00:43:21;;;;;;;;;;;;;;;;;;5073447;28;1906;-70
2022/02/14 00:45:49;;;;;;;;;;;;;;;;;;5072773;28;1320;-71
2022/02/14 00:48:15;;;;;;;;;;;;;;;;;;5073251;28;1058;-71
2022/02/14 00:50:42;;;;;;;;;;;;;;;;;;5072912;28;986;-70
2022/02/14 00:53:08;;;;;;;;;;;;;;;;;;5072776;28;978;-70
2022/02/14 00:55:36;;;;;;;;;;;;;;;;;;5072891;28;1336;-70
2022/02/14 00:58:02;;;;;;;;;;;;;;;;;;5073068;28;1002;-71
2022/02/14 01:00:29;;;;;;;;;;;;;;;;;;5073332;28;804;-71
2022/02/14 01:02:57;;;;;;;;;;;;;;;;;;5054930;28;1980;-71
2022/02/14 01:05:23;;;;;;;;;;;;;;;;;;5054824;28;1338;-71
2022/02/14 01:07:50;;;;;;;;;;;;;;;;;;5054788;28;919;-71
2022/02/14 01:10:16;;;;;;;;;;;;;;;;;;5055080;28;1149;-71
2022/02/14 01:12:43;;;;;;;;;;;;;;;;;;5072871;28;942;-70
2022/02/14 01:15:10;;;;;;;;;;;;;;;;;;5072511;28;1394;-70
2022/02/14 01:17:37;;;;;;;;;;;;;;;;;;5072803;28;1022;-71
2022/02/14 01:20:05;;;;;;;;;;;;;;;;;;5072080;28;801;-70
2022/02/14 01:22:32;;;;;;;;;;;;;;;;;;5072573;28;1985;-70
2022/02/14 01:24:58;;;;;;;;;;;;;;;;;;5071935;28;1328;-71
2022/02/14 01:27:24;;;;;;;;;;;;;;;;;;5072604;28;1275;-70
2022/02/14 01:29:50;;;;;;;;;;;;;;;;;;5072484;28;773;-71
2022/02/14 01:32:22;;;;;;;;;;;;;;;;;;5072434;28;943;-71
2022/02/14 01:34:48;;;;;;;;;;;;;;;;;;5072488;28;1478;-70
2022/02/14 01:37:16;;;;;;;;;;;;;;;;;;5074454;28;1503;-71
2022/02/14 01:39:42;;;;;;;;;;;;;;;;;;5072432;28;986;-70
2022/02/14 01:42:09;;;;;;;;;;;;;;;;;;5072033;28;935;-70
2022/02/14 01:44:36;;;;;;;;;;;;;;;;;;5071853;28;1973;-70
2022/02/14 01:47:02;;;;;;;;;;;;;;;;;;5072230;28;820;-70
2022/02/14 01:49:28;;;;;;;;;;;;;;;;;;5072123;28;987;-71
2022/02/14 01:51:55;;;;;;;;;;;;;;;;;;5072050;28;991;-70
2022/02/14 01:54:22;;;;;;;;;;;;;;;;;;5071880;28;1337;-71
2022/02/14 01:56:49;;;;;;;;;;;;;;;;;;5071999;28;756;-71
2022/02/14 01:59:15;;;;;;;;;;;;;;;;;;5053647;28;853;-70
2022/02/14 02:01:42;;;;;;;;;;;;;;;;;;5071627;28;1001;-70
2022/02/14 02:04:08;;;;;;;;;;;;;;;;;;5071129;28;1981;-70
2022/02/14 02:06:34;;;;;;;;;;;;;;;;;;5071580;28;880;-70
2022/02/14 02:09:00;;;;;;;;;;;;;;;;;;5071714;28;938;-70
2022/02/14 02:14:12;;;;;;;;;;;;;;;;;;5071345;28;1306;-71
2022/02/14 02:16:38;;;;;;;;;;;;;;;;;;5071526;28;1022;-70
2022/02/14 02:19:04;;;;;;;;;;;;;;;;;;5071427;28;1021;-70
2022/02/14 02:21:30;;;;;;;;;;;;;;;;;;5053735;28;873;-71
2022/02/14 02:23:57;;;;;;;;;;;;;;;;;;5071184;28;1979;-70
2022/02/14 02:26:30;;;;;;;;;;;;;;;;;;5071429;28;1348;-70
2022/02/14 02:28:56;;;;;;;;;;;;;;;;;;5071301;28;709;-70
2022/02/14 02:31:22;;;;;;;;;;;;;;;;;;5071265;28;765;-71
2022/02/14 02:33:48;;;;;;;;;;;;;;;;;;5071183;28;907;-70
2022/02/14 02:36:15;;;;;;;;;;;;;;;;;;5070878;28;1387;-70
2022/02/14 02:38:41;;;;;;;;;;;;;;;;;;5071007;28;1017;-70
2022/02/14 02:41:07;;;;;;;;;;;;;;;;;;5071168;28;986;-70
2022/02/14 02:43:35;;;;;;;;;;;;;;;;;;5070973;28;1979;-71
2022/02/14 02:46:01;;;;;;;;;;;;;;;;;;5070676;28;1331;-70
2022/02/14 02:48:27;;;;;;;;;;;;;;;;;;5071126;28;928;-71
2022/02/14 02:51:02;;;;;;;;;;;;;;;;;;5071120;28;781;-70
2022/02/14 02:53:29;;;;;;;;;;;;;;;;;;5053070;28;1065;-71
2022/02/14 02:55:55;;;;;;;;;;;;;;;;;;5070352;28;1406;-70
2022/02/14 02:58:22;;;;;;;;;;;;;;;;;;5070917;28;1046;-70
2022/02/14 03:00:49;;;;;;;;;;;;;;;;;;5070655;28;1050;-71
2022/02/14 03:03:15;;;;;;;;;;;;;;;;;;5069396;28;1926;-70
2022/02/14 03:05:42;;;;;;;;;;;;;;;;;;5070509;28;1402;-70
2022/02/14 03:08:08;;;;;;;;;;;;;;;;;;5070845;28;1029;-70
2022/02/14 03:10:34;;;;;;;;;;;;;;;;;;5053761;28;1245;-69
2022/02/14 03:13:00;;;;;;;;;;;;;;;;;;5070448;28;1006;-70
2022/02/14 03:15:27;;;;;;;;;;;;;;;;;;5070339;28;1340;-69
2022/02/14 03:17:56;;;;;;;;;;;;;;;;;;5070771;28;1045;-69
2022/02/14 03:20:23;;;;;;;;;;;;;;;;;;5052588;28;1091;-70
2022/02/14 03:22:49;;;;;;;;;;;;;;;;;;5070735;28;777;-70
2022/02/14 03:25:16;;;;;;;;;;;;;;;;;;5052401;28;1977;-69
2022/02/14 03:27:42;;;;;;;;;;;;;;;;;;5070765;28;840;-69
2022/02/14 03:30:09;;;;;;;;;;;;;;;;;;5070447;28;828;-70
2022/02/14 03:32:35;;;;;;;;;;;;;;;;;;5070389;28;974;-70
2022/02/14 03:35:03;;;;;;;;;;;;;;;;;;5070155;28;1336;-70
2022/02/14 03:37:29;;;;;;;;;;;;;;;;;;5073030;28;1443;-69
2022/02/14 03:39:55;;;;;;;;;;;;;;;;;;5070479;28;990;-69
2022/02/14 03:42:21;;;;;;;;;;;;;;;;;;5070438;28;1057;-70
2022/02/14 03:44:48;;;;;;;;;;;;;;;;;;5070042;28;1922;-70
2022/02/14 03:47:14;;;;;;;;;;;;;;;;;;5052480;28;1074;-69
2022/02/14 03:49:40;;;;;;;;;;;;;;;;;;5070217;28;1063;-70
2022/02/14 03:52:08;;;;;;;;;;;;;;;;;;5070414;28;1030;-69
2022/02/14 03:54:34;;;;;;;;;;;;;;;;;;5069919;28;1306;-69
2022/02/14 03:57:00;;;;;;;;;;;;;;;;;;5070324;28;859;-69
2022/02/14 03:59:27;;;;;;;;;;;;;;;;;;5070169;28;836;-70
2022/02/14 04:01:53;;;;;;;;;;;;;;;;;;5052530;28;739;-70
2022/02/14 04:04:19;;;;;;;;;;;;;;;;;;5069683;28;1914;-69
2022/02/14 04:06:45;;;;;;;;;;;;;;;;;;5070031;28;967;-70
2022/02/14 04:09:13;;;;;;;;;;;;;;;;;;5052270;28;1182;-69
2022/02/14 04:11:40;;;;;;;;;;;;;;;;;;5070128;28;1232;-70
2022/02/14 04:14:06;;;;;;;;;;;;;;;;;;5070024;28;1352;-69
2022/02/14 04:16:32;;;;;;;;;;;;;;;;;;5069932;28;935;-69
2022/02/14 04:18:58;;;;;;;;;;;;;;;;;;5070098;28;978;-70
2022/02/14 04:21:25;;;;;;;;;;;;;;;;;;5051923;28;995;-69
2022/02/14 04:23:51;;;;;;;;;;;;;;;;;;5070071;28;1971;-69
2022/02/14 04:26:18;;;;;;;;;;;;;;;;;;5051737;28;1328;-69
2022/02/14 04:28:45;;;;;;;;;;;;;;;;;;5071897;28;837;-70
2022/02/14 04:31:11;;;;;;;;;;;;;;;;;;5073658;28;780;-69
2022/02/14 04:33:37;;;;;;;;;;;;;;;;;;5073495;28;781;-70
2022/02/14 04:36:03;;;;;;;;;;;;;;;;;;5073104;28;1302;-70
2022/02/14 04:38:30;;;;;;;;;;;;;;;;;;5073339;28;1056;-69
2022/02/14 04:40:56;;;;;;;;;;;;;;;;;;5055539;28;986;-70
2022/02/14 04:43:24;;;;;;;;;;;;;;;;;;5072920;28;1065;-69
2022/02/14 04:45:50;;;;;;;;;;;;;;;;;;5072777;28;1979;-69
2022/02/14 04:48:16;;;;;;;;;;;;;;;;;;5055393;28;999;-69
2022/02/14 04:50:42;;;;;;;;;;;;;;;;;;5073256;28;1034;-69
2022/02/14 04:53:09;;;;;;;;;;;;;;;;;;5068687;28;1435;-70
2022/02/14 04:55:35;;;;;;;;;;;;;;;;;;5054818;28;1356;-69
2022/02/14 04:58:01;;;;;;;;;;;;;;;;;;5073084;28;1492;-67
2022/02/14 05:00:30;;;;;;;;;;;;;;;;;;5088928;28;1408;-68
2022/02/14 05:02:56;;;;;;;;;;;;;;;;;;5083451;28;1207;-68
2022/02/14 05:05:23;;;;;;;;;;;;;;;;;;5054729;28;1890;-68
2022/02/14 05:07:50;;;;;;;;;;;;;;;;;;5074971;28;1559;-68
2022/02/14 05:10:16;;;;;;;;;;;;;;;;;;5080285;28;1257;-67
2022/02/14 05:12:42;;;;;;;;;;;;;;;;;;5089853;28;1358;-68
2022/02/14 05:15:09;;;;;;;;;;;;;;;;;;5092357;28;1738;-68
2022/02/14 05:17:37;;;;;;;;;;;;;;;;;;5092739;28;994;-68
2022/02/14 05:20:03;;;;;;;;;;;;;;;;;;5073682;28;1528;-67
2022/02/14 05:22:30;;;;;;;;;;;;;;;;;;5054703;28;1002;-67
2022/02/14 05:24:56;;;;;;;;;;;;;;;;;;5074467;28;1981;-67
2022/02/14 05:27:23;;;;;;;;;;;;;;;;;;5091578;28;1528;-67
2022/02/14 05:29:49;;;;;;;;;;;;;;;;;;5076754;28;1488;-67
2022/02/14 05:32:15;;;;;;;;;;;;;;;;;;5073470;28;1453;-68
2022/02/14 05:34:43;;;;;;;;;;;;;;;;;;5074200;28;1523;-68
2022/02/14 05:37:09;;;;;;;;;;;;;;;;;;5072392;28;979;-68
2022/02/14 05:39:35;;;;;;;;;;;;;;;;;;5072919;28;1870;-71
2022/02/14 05:42:01;;;;;;;;;;;;;;;;;;5072323;28;797;-68
2022/02/14 05:44:28;;;;;;;;;;;;;;;;;;5071743;28;1914;-68
2022/02/14 05:46:54;;;;;;;;;;;;;;;;;;5072265;28;773;-68
2022/02/14 05:49:20;;;;;;;;;;;;;;;;;;5072121;28;1022;-69
2022/02/14 05:51:48;;;;;;;;;;;;;;;;;;5071973;28;1077;-68
2022/02/14 05:54:14;;;;;;;;;;;;;;;;;;5071494;28;1337;-68
2022/02/14 05:56:40;;;;;;;;;;;;;;;;;;5071834;28;986;-68
2022/02/14 05:59:07;;;;;;;;;;;;;;;;;;5071917;28;1011;-68
2022/02/14 06:01:33;;;;;;;;;;;;;;;;;;5053822;28;1050;-68
2022/02/14 06:03:59;;;;;;;;;;;;;;;;;;5071731;28;1927;-69
2022/02/14 06:06:25;;;;;;;;;;;;;;;;;;5071429;28;1500;-68
2022/02/14 06:08:53;;;;;;;;;;;;;;;;;;5071730;28;1052;-68
2022/02/14 06:11:20;;;;;;;;;;;;;;;;;;5071296;28;1001;-68
2022/02/14 06:13:46;;;;;;;;;;;;;;;;;;5078153;28;1163;-68
2022/02/14 06:16:12;;;;;;;;;;;;;;;;;;5079955;28;1403;-68
2022/02/14 06:18:39;;;;;;;;;;;;;;;;;;5081947;28;1459;-68
2022/02/14 06:21:05;;;;;;;;;;;;;;;;;;5080614;28;1270;-68
2022/02/14 06:23:31;;;;;;;;;;;;;;;;;;5080457;28;1321;-68
2022/02/14 06:26:01;;;;;;;;;;;;;;;;;;5081489;28;2263;-69
2022/02/14 06:28:27;;;;;;;;;;;;;;;;;;5080489;28;1298;-69
2022/02/14 06:30:53;;;;;;;;;;;;;;;;;;5080296;28;1273;-68
2022/02/14 06:33:20;;;;;;;;;;;;;;;;;;5071190;28;994;-68
2022/02/14 06:35:46;;;;;;;;;;;;;;;;;;5070836;28;1299;-68
2022/02/14 06:38:12;;;;;;;;;;;;;;;;;;5071147;28;987;-68
2022/02/14 06:40:38;;;;;;;;;;;;;;;;;;5071078;28;1069;-68
2022/02/14 06:43:06;;;;;;;;;;;;;;;;;;5070911;28;1059;-68
2022/02/14 06:45:32;;;;;;;;;;;;;;;;;;5070333;28;2056;-68
2022/02/14 06:47:58;;;;;;;;;;;;;;;;;;5071089;28;1025;-68
2022/02/14 06:50:25;;;;;;;;;;;;;;;;;;5070456;28;1054;-69
2022/02/14 06:52:52;;;;;;;;;;;;;;;;;;5070872;28;1078;-69
2022/02/14 06:55:19;;;;;;;;;;;;;;;;;;5052488;28;1284;-69
2022/02/14 06:57:45;;;;;;;;;;;;;;;;;;5052961;28;793;-69
2022/02/14 07:00:15;;;;;;;;;;;;;;;;;;5070868;28;963;-69
2022/02/14 07:02:41;;;;;;;;;;;;;;;;;;5070655;28;744;-69
2022/02/14 07:05:08;;;;;;;;;;;;;;;;;;5070072;28;1981;-68
2022/02/14 07:07:35;;;;;;;;;;;;;;;;;;5070663;28;1017;-69
2022/02/14 07:10:02;;;;;;;;;;;;;;;;;;5052967;28;899;-68
2022/02/14 07:12:28;;;;;;;;;;;;;;;;;;5071399;28;1065;-69
2022/02/14 07:14:55;;;;;;;;;;;;;;;;;;5077296;28;1477;-69
2022/02/14 07:17:22;;;;;;;;;;;;;;;;;;5079104;28;1234;-69
2022/02/14 07:19:48;;;;;;;;;;;;;;;;;;5080353;28;1309;-69
2022/02/14 07:22:15;;;;;;;;;;;;;;;;;;5086600;28;1111;-69
2022/02/14 07:24:41;;;;;;;;;;;;;;;;;;5072205;28;1983;-69
2022/02/14 07:27:07;;;;;;;;;;;;;;;;;;5090795;28;1292;-69
2022/02/14 07:29:33;;;;;;;;;;;;;;;;;;5090678;28;1006;-69
2022/02/14 07:32:00;;;;;;;;;;;;;;;;;;5090624;28;1002;-69
2022/02/14 07:34:28;;;;;;;;;;;;;;;;;;5090016;28;1330;-69
2022/02/14 07:36:54;;;;;;;;;;;;;;;;;;5090409;28;1030;-69
2022/02/14 07:39:20;;;;;;;;;;;;;;;;;;5090665;28;1120;-69
2022/02/14 07:41:48;;;;;;;;;;;;;;;;;;5079683;28;1505;-69
2022/02/14 07:44:14;;;;;;;;;;;;;;;;;;5089590;28;1414;-69
2022/02/14 07:46:40;;;;;;;;;;;;;;;;;;5090183;28;1981;-69
2022/02/14 07:49:06;;;;;;;;;;;;;;;;;;5090184;28;797;-69
2022/02/14 07:51:34;;;;;;;;;;;;;;;;;;5089033;28;1079;-70
2022/02/14 07:54:00;;;;;;;;;;;;;;;;;;5090229;28;788;-68
2022/02/14 07:56:27;;;;;;;;;;;;;;;;;;5090190;28;1305;-69
2022/02/14 07:58:53;;;;;;;;;;;;;;;;;;5090429;28;1085;-70
2022/02/14 08:01:19;;;;;;;;;;;;;;;;;;5090044;28;1043;-70
2022/02/14 08:03:46;;;;;;;;;;;;;;;;;;5092818;28;1000;-69
2022/02/14 08:06:12;;;;;;;;;;;;;;;;;;5093771;28;1910;-69
2022/02/14 08:08:40;;;;;;;;;;;;;;;;;;5094078;28;986;-69
2022/02/14 08:11:06;;;;;;;;;;;;;;;;;;5093895;28;1198;-69
2022/02/14 08:13:32;;;;;;;;;;;;;;;;;;5093854;28;1005;-70
2022/02/14 08:15:58;;;;;;;;;;;;;;;;;;5093598;28;1383;-70
2022/02/14 08:18:24;;;;;;;;;;;;;;;;;;5093601;28;990;-70
2022/02/14 08:20:52;;;;;;;;;;;;;;;;;;5093683;28;833;-70
2022/02/14 08:23:18;;;;;;;;;;;;;;;;;;5093839;28;796;-70
2022/02/14 08:25:46;;;;;;;;;;;;;;;;;;5093318;28;1979;-70
2022/02/14 08:28:12;;;;;;;;;;;;;;;;;;5093817;28;910;-69
2022/02/14 08:30:39;;;;;;;;;;;;;;;;;;5093559;28;978;-70
2022/02/14 08:33:06;;;;;;;;;;;;;;;;;;5093793;28;765;-70
2022/02/14 08:35:33;;;;;;;;;;;;;;;;;;5093310;28;1332;-70
2022/02/14 08:37:59;;;;;;;;;;;;;;;;;;5093196;28;749;-70
2022/02/14 08:40:26;;;;;;;;;;;;;;;;;;5075561;28;792;-69
2022/02/14 08:42:54;;;;;;;;;;;;;;;;;;5093516;28;1018;-70
2022/02/14 08:45:20;;;;;;;;;;;;;;;;;;5093088;28;1948;-70
2022/02/14 08:47:47;;;;;;;;;;;;;;;;;;5093276;28;1030;-70
2022/02/14 08:50:13;;;;;;;;;;;;;;;;;;5093798;28;1053;-70
2022/02/14 08:52:39;;;;;;;;;;;;;;;;;;5093565;28;1005;-70
2022/02/14 08:55:08;;;;;;;;;;;;;;;;;;5092695;28;1335;-70
2022/02/14 08:57:34;;;;;;;;;;;;;;;;;;5093007;28;1025;-70
2022/02/14 09:00:04;;;;;;;;;;;;;;;;;;5093531;28;735;-70
2022/02/14 09:02:31;;;;;;;;;;;;;;;;;;5092835;28;796;-70
2022/02/14 09:04:57;;;;;;;;;;;;;;;;;;5071138;28;1984;-70
2022/02/14 09:07:23;;;;;;;;;;;;;;;;;;5072872;28;1073;-69
2022/02/14 09:09:49;;;;;;;;;;;;;;;;;;5072724;28;1033;-70
2022/02/14 09:12:17;;;;;;;;;;;;;;;;;;5073926;28;1053;-70
2022/02/14 09:14:44;;;;;;;;;;;;;;;;;;5071706;28;1389;-69
2022/02/14 09:17:11;;;;;;;;;;;;;;;;;;5073018;28;928;-70
2022/02/14 09:19:38;;;;;;;;;;;;;;;;;;5072417;28;1046;-69
2022/02/14 09:22:04;;;;;;;;;;;;;;;;;;5072607;28;958;-69
2022/02/14 09:24:31;;;;;;;;;;;;;;;;;;5072245;28;1326;-69
2022/02/14 09:26:58;;;;;;;;;;;;;;;;;;5072353;28;1980;-69
2022/02/14 09:29:24;;;;;;;;;;;;;;;;;;5077558;28;1215;-69
2022/02/14 09:31:52;;;;;;;;;;;;;;;;;;5087388;28;1467;-70
2022/02/14 09:34:20;;;;;;;;;;;;;;;;;;5071639;28;1751;-69
2022/02/14 09:36:46;;;;;;;;;;;;;;;;;;5072044;28;1070;-69
2022/02/14 09:39:13;;;;;;;;;;;;;;;;;;5072108;28;1124;-70
2022/02/14 09:41:39;;;;;;;;;;;;;;;;;;5054176;28;875;-70
2022/02/14 09:44:05;;;;;;;;;;;;;;;;;;5071896;28;1393;-69
2022/02/14 09:46:32;;;;;;;;;;;;;;;;;;5071809;28;1914;-69
2022/02/14 09:48:59;;;;;;;;;;;;;;;;;;5072217;28;1021;-70
2022/02/14 09:51:28;;;;;;;;;;;;;;;;;;5071602;28;1034;-69
2022/02/14 09:53:54;;;;;;;;;;;;;;;;;;5054105;28;2414;-69
2022/02/14 09:56:22;;;;;;;;;;;;;;;;;;5053706;28;1323;-69
2022/02/14 09:58:48;;;;;;;;;;;;;;;;;;5071598;28;1014;-70
2022/02/14 10:01:14;;;;;;;;;;;;;;;;;;5071815;28;895;-70
2022/02/14 10:03:48;;;;;;;;;;;;;;;;;;5071896;28;857;-70
2022/02/14 10:06:23;;;;;;;;;;;;;;;;;;5071237;28;1918;-69
2022/02/14 10:08:51;;;;;;;;;;;;;;;;;;5071456;28;927;-70
2022/02/14 10:11:18;;;;;;;;;;;;;;;;;;5071537;28;686;-70
2022/02/14 10:13:50;;;;;;;;;;;;;;;;;;5071244;28;835;-69
2022/02/14 10:16:16;;;;;;;;;;;;;;;;;;5071108;28;1359;-70
2022/02/14 10:18:43;;;;;;;;;;;;;;;;;;5071406;28;982;-70
2022/02/14 10:21:16;;;;;;;;;;;;;;;;;;5071320;28;1093;-70
2022/02/14 10:24:13;;;;;;;;;;;;;;;;;;5071202;28;811;-69
2022/02/14 10:26:42;;;;;;;;;;;;;;;;;;5008521;28;1975;-70
2022/02/14 10:29:09;;;;;;;;;;;;;;;;;;5057604;28;1335;-69
2022/02/14 10:31:39;;;;;;;;;;;;;;;;;;5071189;28;1003;-69
2022/02/14 10:34:06;;;;;;;;;;;;;;;;;;5071009;28;1407;-69
2022/02/14 10:36:32;;;;;;;;;;;;;;;;;;5070832;28;963;-70
2022/02/14 10:38:59;;;;;;;;;;;;;;;;;;5070970;28;1002;-69
2022/02/14 10:41:27;;;;;;;;;;;;;;;;;;5071242;28;970;-69
2022/02/14 10:43:55;;;;;;;;;;;;;;;;;;5070696;28;1101;-70
2022/02/14 10:46:22;;;;;;;;;;;;;;;;;;5070639;28;1914;-70
2022/02/14 10:48:48;;;;;;;;;;;;;;;;;;5052891;28;1075;-70
2022/02/14 10:51:18;;;;;;;;;;;;;;;;;;5070908;28;986;-70
2022/02/14 10:53:45;;;;;;;;;;;;;;;;;;5070631;28;1039;-70
2022/02/14 10:56:13;;;;;;;;;;;;;;;;;;5070540;28;1293;-70
2022/02/14 10:58:39;;;;;;;;;;;;;;;;;;5070671;28;730;-70
2022/02/14 11:01:07;;;;;;;;;;;;;;;;;;5070531;28;1050;-70
2022/02/14 11:03:33;;;;;;;;;;;;;;;;;;5070677;28;832;-70
2022/02/14 11:06:00;;;;;;;;;;;;;;;;;;5070179;28;1979;-69
2022/02/14 11:08:26;;;;;;;;;;;;;;;;;;5070653;28;1082;-70
2022/02/14 11:10:53;;;;;;;;;;;;;;;;;;5070344;28;1002;-70
2022/02/14 11:13:19;;;;;;;;;;;;;;;;;;5070650;28;990;-70
2022/02/14 11:15:46;;;;;;;;;;;;;;;;;;5070016;28;1917;-69
2022/02/14 11:18:14;;;;;;;;;;;;;;;;;;5070054;28;813;-70
2022/02/14 11:20:41;;;;;;;;;;;;;;;;;;5070253;28;995;-70
2022/02/14 11:23:08;;;;;;;;;;;;;;;;;;5052432;28;1003;-70
2022/02/14 11:25:35;;;;;;;;;;;;;;;;;;5069913;28;1377;-70
2022/02/14 11:28:02;;;;;;;;;;;;;;;;;;5070414;28;1922;-70
2022/02/14 11:30:29;;;;;;;;;;;;;;;;;;5072899;28;1479;-70
2022/02/14 11:33:03;;;;;;;;;;;;;;;;;;5070254;28;1045;-70
2022/02/14 11:35:30;;;;;;;;;;;;;;;;;;5068159;28;1360;-69
2022/02/14 11:37:59;;;;;;;;;;;;;;;;;;5071208;28;1030;-69
2022/02/14 11:40:44;;;;;;;;;;;;;;;;;;5074614;28;788;-69
2022/02/14 11:43:11;;;;;;;;;;;;;;;;;;5077809;28;1165;-70
2022/02/14 11:45:38;;;;;;;;;;;;;;;;;;5075486;28;1339;-70
2022/02/14 11:48:19;;;;;;;;;;;;;;;;;;5074352;28;1969;-70
2022/02/14 11:50:47;;;;;;;;;;;;;;;;;;5074238;28;821;-70
2022/02/14 11:53:33;;;;;;;;;;;;;;;;;;5074253;28;885;-70
2022/02/14 11:56:17;;;;;;;;;;;;;;;;;;5073537;28;1411;-69
2022/02/14 11:58:58;;;;;;;;;;;;;;;;;;5074056;28;954;-70
2022/02/14 12:01:24;;;;;;;;;;;;;;;;;;5074270;28;888;-69
2022/02/14 12:03:51;;;;;;;;;;;;;;;;;;5073926;28;903;-70
2022/02/14 12:06:19;;;;;;;;;;;;;;;;;;5093041;28;1910;-69
2022/02/14 12:08:57;;;;;;;;;;;;;;;;;;5094343;28;1036;-70
2022/02/14 12:11:39;;;;;;;;;;;;;;;;;;5094166;28;1034;-69
2022/02/14 12:14:05;;;;;;;;;;;;;;;;;;5075422;28;1369;-70
2022/02/14 12:22:04;;;;;;;;;;;;;;;;;;5094142;28;1010;-69
2022/02/14 12:24:31;;;;;;;;;;;;;;;;;;5092881;28;1324;-69
2022/02/14 12:26:59;;;;;;;;;;;;;;;;;;5094014;28;1914;-69
2022/02/14 12:29:33;;;;;;;;;;;;;;;;;;5093920;28;824;-69
2022/02/14 12:31:59;;;;;;;;;;;;;;;;;;5093973;28;828;-69
2022/02/14 12:34:26;;;;;;;;;;;;;;;;;;5093410;28;1403;-70
2022/02/14 12:36:53;;;;;;;;;;;;;;;;;;5093658;28;954;-69
2022/02/14 12:39:28;;;;;;;;;;;;;;;;;;5093845;28;776;-70
2022/02/14 12:41:54;;;;;;;;;;;;;;;;;;5093570;28;994;-69
2022/02/14 12:44:20;;;;;;;;;;;;;;;;;;5093021;28;1344;-70
2022/02/14 12:46:46;;;;;;;;;;;;;;;;;;5091722;28;2045;-69
2022/02/14 12:49:13;;;;;;;;;;;;;;;;;;5085021;28;1387;-70
2022/02/14 12:51:39;;;;;;;;;;;;;;;;;;5093228;28;990;-70
2022/02/14 12:54:06;;;;;;;;;;;;;;;;;;5092831;28;1521;-70
2022/02/14 12:56:34;;;;;;;;;;;;;;;;;;5093308;28;923;-69
2022/02/14 12:59:01;;;;;;;;;;;;;;;;;;5093286;28;982;-70
2022/02/14 13:01:28;;;;;;;;;;;;;;;;;;5083985;28;1293;-69
2022/02/14 13:03:55;;;;;;;;;;;;;;;;;;5072444;28;1046;-69
2022/02/14 13:06:21;;;;;;;;;;;;;;;;;;5072297;28;1917;-70
2022/02/14 13:08:52;;;;;;;;;;;;;;;;;;5073079;28;1042;-70
2022/02/14 13:11:19;;;;;;;;;;;;;;;;;;5073592;28;1069;-70
2022/02/14 13:13:46;;;;;;;;;;;;;;;;;;5073209;28;1096;-70
2022/02/14 13:16:12;;;;;;;;;;;;;;;;;;5072445;28;1330;-70
2022/02/14 13:18:39;;;;;;;;;;;;;;;;;;5072643;28;1084;-70
2022/02/14 13:21:06;;;;;;;;;;;;;;;;;;5072568;28;805;-70
2022/02/14 13:23:32;;;;;;;;;;;;;;;;;;5072367;28;852;-71
2022/02/14 13:25:58;;;;;;;;;;;;;;;;;;5086274;28;1481;-72
2022/02/14 13:28:25;;;;;;;;;;;;;;;;;;5092992;28;1973;-70
2022/02/14 13:30:53;;;;;;;;;;;;;;;;;;5091463;28;943;-70
2022/02/14 13:33:19;;;;;;;;;;;;;;;;;;5088926;28;1128;-70
2022/02/14 13:35:45;;;;;;;;;;;;;;;;;;5092098;28;1328;-70
2022/02/14 13:38:12;;;;;;;;;;;;;;;;;;5092914;28;818;-70
2022/02/14 13:40:40;;;;;;;;;;;;;;;;;;5092405;28;689;-69
2022/02/14 13:43:07;;;;;;;;;;;;;;;;;;5092457;28;881;-69
2022/02/14 13:45:43;;;;;;;;;;;;;;;;;;5091862;28;1410;-69
2022/02/14 13:48:17;;;;;;;;;;;;;;;;;;5092250;28;1973;-70
2022/02/14 13:50:44;;;;;;;;;;;;;;;;;;5092196;28;796;-69
2022/02/14 13:53:19;;;;;;;;;;;;;;;;;;5092555;28;907;-69
2022/02/14 13:55:46;;;;;;;;;;;;;;;;;;5091653;28;1345;-69
2022/02/14 13:58:24;;;;;;;;;;;;;;;;;;5091829;28;823;-70
2022/02/14 14:00:51;;;;;;;;;;;;;;;;;;5086893;28;1163;-70
2022/02/14 14:03:18;;;;;;;;;;;;;;;;;;5071749;28;895;-69
2022/02/14 14:05:45;;;;;;;;;;;;;;;;;;5072269;28;1432;-69
2022/02/14 14:08:11;;;;;;;;;;;;;;;;;;5071861;28;1914;-70
2022/02/14 14:10:38;;;;;;;;;;;;;;;;;;5072042;28;801;-70
2022/02/14 14:13:05;;;;;;;;;;;;;;;;;;5071405;28;1054;-69
2022/02/14 14:15:31;;;;;;;;;;;;;;;;;;5071814;28;1336;-69
2022/02/14 14:17:57;;;;;;;;;;;;;;;;;;5053422;28;1332;-69
2022/02/14 14:20:25;;;;;;;;;;;;;;;;;;5071402;28;915;-70
2022/02/14 14:22:51;;;;;;;;;;;;;;;;;;5071141;28;962;-70
2022/02/14 14:25:18;;;;;;;;;;;;;;;;;;5070978;28;1340;-69
2022/02/14 14:27:47;;;;;;;;;;;;;;;;;;5069093;28;1971;-69
2022/02/14 14:30:13;;;;;;;;;;;;;;;;;;5087905;28;1026;-70
2022/02/14 14:32:40;;;;;;;;;;;;;;;;;;5090257;28;1053;-69
2022/02/14 14:35:06;;;;;;;;;;;;;;;;;;5090996;28;1413;-69
2022/02/14 14:39:58;;;;;;;;;;;;;;;;;;5108389;27;1517;-68
2022/02/14 14:42:25;;;;;;;;;;;;;;;;;;5108458;28;954;-69
2022/02/14 14:44:51;;;;;;;;;;;;;;;;;;5107869;28;1323;-69
2022/02/14 14:47:17;;;;;;;;;;;;;;;;;;5108074;28;796;-69
2022/02/14 14:49:43;;;;;;;;;;;;;;;;;;5108050;28;1119;-69
2022/02/14 14:52:09;;;;;;;;;;;;;;;;;;4992153;27;56116;-68
2022/02/14 14:54:50;;;;;;;;;;;;;;;;;;4814077;27;55557;-71
2022/02/14 14:57:16;;;;;;;;;;;;;;;;;;5029818;28;10811;-68
2022/02/14 14:59:43;;;;;;;;;;;;;;;;;;5054299;28;801;-68
2022/02/14 15:02:09;;;;;;;;;;;;;;;;;;5048067;28;1152;-68
2022/02/14 15:04:35;;;;;;;;;;;;;;;;;;5045160;28;1491;-67
2022/02/14 15:07:01;;;;;;;;;;;;;;;;;;5047173;28;971;-68
2022/02/14 15:09:28;;;;;;;;;;;;;;;;;;5047726;28;979;-68
2022/02/14 15:11:56;;;;;;;;;;;;;;;;;;5047590;28;887;-68
2022/02/14 15:14:23;;;;;;;;;;;;;;;;;;5046486;28;1917;-69
2022/02/14 15:16:50;;;;;;;;;;;;;;;;;;5033912;23;3622;-73
2022/02/14 15:19:16;;;;;;;;;;;;;;;;;;5008956;28;1155;-72
2022/02/14 15:21:42;;;;;;;;;;;;;;;;;;5007805;28;1231;-73
2022/02/14 15:24:08;;;;;;;;;;;;;;;;;;5007651;28;960;-72
2022/02/14 15:26:36;;;;;;;;;;;;;;;;;;5007749;28;1313;-72
2022/02/14 15:29:06;;;;;;;;;;;;;;;;;;5007647;28;1173;-73
2022/02/14 15:31:33;;;;;;;;;;;;;;;;;;5006733;28;1355;-73
2022/02/14 15:33:59;;;;;;;;;;;;;;;;;;5006725;28;1915;-72
2022/02/14 15:36:27;;;;;;;;;;;;;;;;;;5009163;28;1780;-73
2022/02/14 15:38:53;;;;;;;;;;;;;;;;;;5008013;28;1222;-73
2022/02/14 15:41:19;;;;;;;;;;;;;;;;;;5007623;28;1078;-73
2022/02/14 15:43:47;;;;;;;;;;;;;;;;;;5007426;28;975;-74
2022/02/14 15:46:15;;;;;;;;;;;;;;;;;;5007059;28;1400;-74
2022/02/14 15:48:41;;;;;;;;;;;;;;;;;;5007491;28;1047;-73
2022/02/14 15:51:07;;;;;;;;;;;;;;;;;;5007229;28;1113;-73
2022/02/14 15:53:35;;;;;;;;;;;;;;;;;;5007061;28;1918;-73
2022/02/14 15:56:01;;;;;;;;;;;;;;;;;;5006829;28;1320;-74
2022/02/14 15:58:27;;;;;;;;;;;;;;;;;;5007260;28;1070;-73
2022/02/14 16:00:56;;;;;;;;;;;;;;;;;;5005451;28;1074;-73
2022/02/14 16:03:23;;;;;;;;;;;;;;;;;;5006823;28;1097;-74
2022/02/14 16:05:49;;;;;;;;;;;;;;;;;;4995898;28;1342;-72
2022/02/14 16:08:15;;;;;;;;;;;;;;;;;;4994120;28;1137;-71
2022/02/14 16:10:42;;;;;;;;;;;;;;;;;;4994047;28;1238;-73
2022/02/14 16:13:08;;;;;;;;;;;;;;;;;;4993724;28;1973;-73
2022/02/14 16:15:34;;;;;;;;;;;;;;;;;;4993668;28;1313;-69
2022/02/14 16:18:01;;;;;;;;;;;;;;;;;;4993679;28;1082;-72
2022/02/14 16:20:28;;;;;;;;;;;;;;;;;;4994213;28;932;-72
2022/02/14 16:22:54;;;;;;;;;;;;;;;;;;4992457;28;1237;-72
2022/02/14 16:25:21;;;;;;;;;;;;;;;;;;4993469;28;1358;-72
2022/02/14 16:27:50;;;;;;;;;;;;;;;;;;4993740;28;1015;-72
2022/02/14 16:30:16;;;;;;;;;;;;;;;;;;4993710;28;844;-73
2022/02/14 16:32:43;;;;;;;;;;;;;;;;;;4993862;28;1054;-73
2022/02/14 16:35:10;;;;;;;;;;;;;;;;;;4992084;28;1979;-73
2022/02/14 16:37:37;;;;;;;;;;;;;;;;;;4993678;28;1094;-73
2022/02/14 16:40:04;;;;;;;;;;;;;;;;;;4993706;28;1079;-73
2022/02/14 16:42:30;;;;;;;;;;;;;;;;;;5002847;28;801;-73
2022/02/14 16:44:56;;;;;;;;;;;;;;;;;;4996775;28;1433;-72
2022/02/14 16:47:22;;;;;;;;;;;;;;;;;;4993518;28;979;-75
2022/02/14 16:49:54;;;;;;;;;;;;;;;;;;5001325;28;1086;-73
2022/02/14 16:52:20;;;;;;;;;;;;;;;;;;5004068;28;1107;-73
2022/02/14 16:54:48;;;;;;;;;;;;;;;;;;4993254;28;1964;-73
2022/02/14 16:57:14;;;;;;;;;;;;;;;;;;4992984;28;1352;-73
2022/02/14 16:59:40;;;;;;;;;;;;;;;;;;4993167;28;1079;-73
2022/02/14 17:02:07;;;;;;;;;;;;;;;;;;4992957;28;1106;-73
2022/02/14 17:04:34;;;;;;;;;;;;;;;;;;4992574;28;1070;-73
2022/02/14 17:07:00;;;;;;;;;;;;;;;;;;4992974;28;1324;-73
2022/02/14 17:09:28;;;;;;;;;;;;;;;;;;4993154;28;837;-73
2022/02/14 17:11:55;;;;;;;;;;;;;;;;;;4992829;28;1176;-74
2022/02/14 17:14:22;;;;;;;;;;;;;;;;;;4991202;28;1969;-73
2022/02/14 17:16:48;;;;;;;;;;;;;;;;;;4992194;28;1314;-73
2022/02/14 17:19:15;;;;;;;;;;;;;;;;;;4993482;28;780;-73